LZSL

Sliač Airport

Sliač, Slovakia (Slovak Republic)
TAF LZSL 151100Z 1512/1521 04006KT CAVOK TEMPO 1512/1516 01012KT 9999 SCT055
Issued Valid From Valid To
Aug-15 @ 11:00 UTC
(2 hours ago)
Aug-15 @ 12:00 UTC
(42 minutes ago)
Aug-15 @ 21:00 UTC
(in 8 hours)
Aug-15 @ 12:00 to Aug-15 @ 21:00
TAF LZSL 151100Z 1512/1521 04006KT CAVOK
Wind Visibility Clouds Conditions
40° at 6 knots 10,000+ meters
  • No significant clouds
Temporary Aug-15 @ 12:00 to Aug-15 @ 16:00
TEMPO 1512/1516 01012KT 9999 SCT055
Wind Visibility Clouds
10° at 12 knots 10,000+ meters
  • Scattered at 5,500' AGL
TAF LZSL 151100Z 1512/1521 04006KT CAVOK TEMPO 1512/1516 01012KT 9999 SCT055
Issued Aug-15 @ 11:00 UTC
(2 hours ago)
Valid From Aug-15 @ 12:00 UTC
(42 minutes ago)
Valid To Aug-15 @ 21:00 UTC
(in 8 hours)
Aug-15 @ 12:00 - Aug-15 @ 21:00
Wind Visibility
40° at 6 knots 10,000+ meters
Clouds
  • No significant clouds
Conditions
Temporary Aug-15 @ 12:00 - Aug-15 @ 16:00
Wind Visibility
10° at 12 knots 10,000+ meters
Clouds
  • Scattered at 5,500' AGL